WZZ8080 LRBV-LHBP
Flight info
| Callsign | WZZ8080 |
|---|---|
| Flight time | 0h 55m |
| Altitude | 36000 |
| Route | EBCOL DCT COZMU DCT TOMET DCT BUDOP DCT KEZAL |
| Aircraft | A320/M-SDE1E2E3FGIJ1J4RWXY/LB1 |
Departure
| Time | 2026-05-04 17:33 |
|---|---|
| Airport | Brașov-Ghimbav International Airport (LRBV) |
Arrival
| Time | 2026-05-04 18:28 |
|---|---|
| Airport | Budapest Liszt Ferenc International Airport (LHBP) |
| Time | Latitude | Longitude | Altitude | Speed | Heading |
|---|---|---|---|---|---|
| 2026-05-04 17:11 | 45.69494 | 25.51649 | 1798 ft | 0 kts | 124° |
| 2026-05-04 17:26 | 45.69516 | 25.51606 | 1795 ft | 4 kts | 132° |
| 2026-05-04 17:27 | 45.69557 | 25.51572 | 1796 ft | 3 kts | 212° |
| 2026-05-04 17:27 | 45.69560 | 25.51575 | 1796 ft | 0 kts | 217° |
| 2026-05-04 17:29 | 45.69530 | 25.51542 | 1793 ft | 5 kts | 217° |
| 2026-05-04 17:30 | 45.69569 | 25.51370 | 1792 ft | 9 kts | 306° |
| 2026-05-04 17:31 | 45.69675 | 25.51363 | 1794 ft | 0 kts | 36° |
| 2026-05-04 17:31 | 45.69718 | 25.51408 | 1792 ft | 25 kts | 36° |
| 2026-05-04 17:32 | 45.70718 | 25.52457 | 1766 ft | 141 kts | 36° |
| 2026-05-04 17:33 | 45.73483 | 25.55302 | 3202 ft | 170 kts | 37° |
| 2026-05-04 17:33 | 45.74495 | 25.56377 | 3552 ft | 193 kts | 37° |
| 2026-05-04 17:34 | 45.78317 | 25.60424 | 4936 ft | 255 kts | 36° |
| 2026-05-04 17:34 | 45.79755 | 25.61941 | 5848 ft | 258 kts | 35° |
| 2026-05-04 17:35 | 45.84964 | 25.63334 | 8485 ft | 264 kts | 358° |
| 2026-05-04 17:35 | 45.88724 | 25.63091 | 10058 ft | 275 kts | 358° |
| 2026-05-04 17:35 | 45.90681 | 25.62962 | 10480 ft | 293 kts | 359° |
| 2026-05-04 17:36 | 45.92797 | 25.62828 | 10733 ft | 314 kts | 359° |
| 2026-05-04 17:36 | 45.95006 | 25.62689 | 11309 ft | 322 kts | 359° |
| 2026-05-04 17:36 | 45.97258 | 25.62547 | 12013 ft | 326 kts | 359° |
| 2026-05-04 17:36 | 45.99532 | 25.62290 | 12719 ft | 332 kts | 351° |
| 2026-05-04 17:37 | 46.01702 | 25.61064 | 13397 ft | 343 kts | 330° |
| 2026-05-04 17:37 | 46.03456 | 25.58678 | 14032 ft | 357 kts | 308° |
| 2026-05-04 17:37 | 46.04488 | 25.55382 | 14602 ft | 369 kts | 289° |
| 2026-05-04 17:37 | 46.05145 | 25.51790 | 15203 ft | 373 kts | 288° |
| 2026-05-04 17:38 | 46.05782 | 25.48157 | 15818 ft | 376 kts | 288° |
| 2026-05-04 17:38 | 46.06202 | 25.45729 | 16221 ft | 378 kts | 287° |
| 2026-05-04 17:38 | 46.06835 | 25.42048 | 16792 ft | 381 kts | 288° |
| 2026-05-04 17:38 | 46.07479 | 25.38326 | 17391 ft | 384 kts | 288° |
| 2026-05-04 17:39 | 46.08794 | 25.30799 | 18600 ft | 390 kts | 288° |
| 2026-05-04 17:39 | 46.09460 | 25.27009 | 19152 ft | 392 kts | 288° |
| 2026-05-04 17:39 | 46.10131 | 25.23201 | 19746 ft | 393 kts | 287° |
| 2026-05-04 17:40 | 46.10804 | 25.19372 | 20342 ft | 395 kts | 287° |
| 2026-05-04 17:40 | 46.11476 | 25.15530 | 20907 ft | 397 kts | 287° |
| 2026-05-04 17:40 | 46.12151 | 25.11664 | 21455 ft | 398 kts | 287° |
| 2026-05-04 17:40 | 46.12825 | 25.07783 | 21991 ft | 400 kts | 287° |
| 2026-05-04 17:41 | 46.13502 | 25.03864 | 22522 ft | 402 kts | 287° |
| 2026-05-04 17:41 | 46.14175 | 24.99969 | 22990 ft | 405 kts | 287° |
| 2026-05-04 17:41 | 46.14860 | 24.96008 | 23468 ft | 408 kts | 287° |
| 2026-05-04 17:41 | 46.15547 | 24.92027 | 23911 ft | 410 kts | 287° |
| 2026-05-04 17:42 | 46.16234 | 24.88027 | 24331 ft | 412 kts | 286° |
| 2026-05-04 17:42 | 46.16925 | 24.84003 | 24758 ft | 414 kts | 286° |
| 2026-05-04 17:42 | 46.17616 | 24.79964 | 25173 ft | 416 kts | 286° |
| 2026-05-04 17:42 | 46.18310 | 24.75891 | 25582 ft | 418 kts | 286° |
| 2026-05-04 17:43 | 46.19003 | 24.71810 | 25989 ft | 420 kts | 286° |
| 2026-05-04 17:43 | 46.19701 | 24.67701 | 26385 ft | 422 kts | 286° |
| 2026-05-04 17:43 | 46.20401 | 24.63573 | 26773 ft | 424 kts | 286° |
| 2026-05-04 17:43 | 46.21099 | 24.59436 | 27145 ft | 426 kts | 285° |
| 2026-05-04 17:44 | 46.21801 | 24.55266 | 27532 ft | 428 kts | 285° |
| 2026-05-04 17:44 | 46.22506 | 24.51069 | 27929 ft | 430 kts | 285° |
| 2026-05-04 17:44 | 46.23202 | 24.46915 | 28310 ft | 432 kts | 285° |
| 2026-05-04 17:44 | 46.23912 | 24.42683 | 28713 ft | 434 kts | 285° |
| 2026-05-04 17:45 | 46.24622 | 24.38438 | 29107 ft | 436 kts | 285° |
| 2026-05-04 17:45 | 46.25331 | 24.34182 | 29497 ft | 438 kts | 285° |
| 2026-05-04 17:45 | 46.26045 | 24.29885 | 29868 ft | 440 kts | 285° |
| 2026-05-04 17:45 | 46.26760 | 24.25569 | 30232 ft | 442 kts | 285° |
| 2026-05-04 17:46 | 46.27477 | 24.21237 | 30545 ft | 444 kts | 285° |
| 2026-05-04 17:46 | 46.28194 | 24.16890 | 30917 ft | 445 kts | 285° |
| 2026-05-04 17:46 | 46.28906 | 24.12553 | 31364 ft | 443 kts | 285° |
| 2026-05-04 17:46 | 46.29615 | 24.08213 | 31800 ft | 443 kts | 285° |
| 2026-05-04 17:47 | 46.30322 | 24.03871 | 32013 ft | 443 kts | 285° |
| 2026-05-04 17:47 | 46.31019 | 23.99575 | 32055 ft | 436 kts | 285° |
| 2026-05-04 17:47 | 46.32394 | 23.91104 | 32054 ft | 431 kts | 285° |
| 2026-05-04 17:48 | 46.33770 | 23.82677 | 32058 ft | 431 kts | 285° |
| 2026-05-04 17:48 | 46.35136 | 23.74237 | 32059 ft | 431 kts | 285° |
| 2026-05-04 17:49 | 46.36482 | 23.65783 | 32069 ft | 431 kts | 285° |
| 2026-05-04 17:49 | 46.37823 | 23.57333 | 32083 ft | 431 kts | 285° |
| 2026-05-04 17:50 | 46.39170 | 23.48879 | 32072 ft | 431 kts | 285° |
| 2026-05-04 17:50 | 46.40511 | 23.40391 | 32083 ft | 432 kts | 285° |
| 2026-05-04 17:51 | 46.41833 | 23.31910 | 32083 ft | 432 kts | 285° |
| 2026-05-04 17:51 | 46.43157 | 23.23400 | 32101 ft | 432 kts | 285° |
| 2026-05-04 17:52 | 46.44482 | 23.14906 | 32106 ft | 433 kts | 285° |
| 2026-05-04 17:52 | 46.45802 | 23.06391 | 32109 ft | 433 kts | 285° |
| 2026-05-04 17:53 | 46.47109 | 22.97874 | 32113 ft | 433 kts | 285° |
| 2026-05-04 17:53 | 46.48410 | 22.89348 | 32116 ft | 433 kts | 285° |
| 2026-05-04 17:54 | 46.49699 | 22.80819 | 32118 ft | 433 kts | 285° |
| 2026-05-04 17:54 | 46.50991 | 22.72287 | 32104 ft | 433 kts | 285° |
| 2026-05-04 17:55 | 46.52278 | 22.63764 | 32107 ft | 432 kts | 285° |
| 2026-05-04 17:55 | 46.53543 | 22.55294 | 32115 ft | 432 kts | 285° |
| 2026-05-04 17:56 | 46.54807 | 22.46764 | 32108 ft | 432 kts | 285° |
| 2026-05-04 17:56 | 46.56069 | 22.38240 | 32108 ft | 432 kts | 285° |
| 2026-05-04 17:57 | 46.57299 | 22.29844 | 32087 ft | 431 kts | 285° |
| 2026-05-04 17:57 | 46.58544 | 22.21246 | 32097 ft | 431 kts | 285° |
| 2026-05-04 17:58 | 46.59790 | 22.12734 | 32088 ft | 431 kts | 285° |
| 2026-05-04 17:58 | 46.61034 | 22.04208 | 32095 ft | 431 kts | 285° |
| 2026-05-04 17:59 | 46.62264 | 21.95686 | 32073 ft | 431 kts | 285° |
| 2026-05-04 18:00 | 46.64084 | 21.82901 | 32077 ft | 430 kts | 285° |
| 2026-05-04 18:00 | 46.65296 | 21.74372 | 32083 ft | 430 kts | 285° |
| 2026-05-04 18:01 | 46.66501 | 21.65853 | 32085 ft | 430 kts | 285° |
| 2026-05-04 18:01 | 46.67686 | 21.57332 | 32088 ft | 430 kts | 285° |
| 2026-05-04 18:02 | 46.69157 | 21.48949 | 32076 ft | 424 kts | 296° |
| 2026-05-04 18:02 | 46.70454 | 21.45119 | 32077 ft | 421 kts | 302° |
| 2026-05-04 18:02 | 46.73284 | 21.37649 | 32079 ft | 421 kts | 302° |
| 2026-05-04 18:03 | 46.76100 | 21.30156 | 32078 ft | 421 kts | 302° |
| 2026-05-04 18:03 | 46.78888 | 21.22687 | 32079 ft | 421 kts | 302° |
| 2026-05-04 18:04 | 46.81682 | 21.15175 | 32072 ft | 421 kts | 301° |
| 2026-05-04 18:05 | 46.85877 | 21.03884 | 32072 ft | 421 kts | 301° |
| 2026-05-04 18:05 | 46.88666 | 20.96357 | 31941 ft | 420 kts | 301° |
| 2026-05-04 18:05 | 46.90032 | 20.92654 | 31687 ft | 416 kts | 301° |
| 2026-05-04 18:06 | 46.92774 | 20.85210 | 31166 ft | 412 kts | 300° |
| 2026-05-04 18:06 | 46.94134 | 20.81526 | 30917 ft | 411 kts | 300° |
| 2026-05-04 18:06 | 46.95492 | 20.77849 | 30670 ft | 409 kts | 300° |
| 2026-05-04 18:07 | 46.96835 | 20.74197 | 30429 ft | 408 kts | 300° |
| 2026-05-04 18:07 | 46.98222 | 20.70589 | 29903 ft | 406 kts | 303° |
| 2026-05-04 18:07 | 46.99676 | 20.67126 | 29405 ft | 401 kts | 304° |
| 2026-05-04 18:07 | 47.01181 | 20.63720 | 28930 ft | 396 kts | 305° |
| 2026-05-04 18:08 | 47.02693 | 20.60367 | 28459 ft | 392 kts | 305° |
| 2026-05-04 18:08 | 47.04186 | 20.57048 | 28003 ft | 388 kts | 305° |
| 2026-05-04 18:08 | 47.05653 | 20.53746 | 27559 ft | 385 kts | 304° |
| 2026-05-04 18:08 | 47.07093 | 20.50459 | 27121 ft | 382 kts | 304° |
| 2026-05-04 18:09 | 47.09912 | 20.43918 | 26268 ft | 377 kts | 304° |
| 2026-05-04 18:09 | 47.12680 | 20.37455 | 25461 ft | 371 kts | 303° |
| 2026-05-04 18:10 | 47.14053 | 20.34253 | 25055 ft | 369 kts | 303° |
| 2026-05-04 18:10 | 47.15410 | 20.31092 | 24656 ft | 366 kts | 304° |
| 2026-05-04 18:10 | 47.16767 | 20.27931 | 24262 ft | 364 kts | 303° |
| 2026-05-04 18:10 | 47.18111 | 20.24793 | 23844 ft | 362 kts | 303° |
| 2026-05-04 18:11 | 47.19443 | 20.21677 | 23407 ft | 360 kts | 303° |
| 2026-05-04 18:11 | 47.20765 | 20.18579 | 22974 ft | 356 kts | 303° |
| 2026-05-04 18:11 | 47.22074 | 20.15504 | 22556 ft | 353 kts | 303° |
| 2026-05-04 18:11 | 47.23368 | 20.12464 | 22137 ft | 350 kts | 303° |
| 2026-05-04 18:12 | 47.24654 | 20.09438 | 21709 ft | 347 kts | 303° |
| 2026-05-04 18:12 | 47.25927 | 20.06436 | 21289 ft | 345 kts | 303° |
| 2026-05-04 18:12 | 47.27193 | 20.03450 | 20857 ft | 343 kts | 303° |
| 2026-05-04 18:12 | 47.28460 | 20.00465 | 20392 ft | 343 kts | 303° |
| 2026-05-04 18:13 | 47.29739 | 19.97453 | 19772 ft | 350 kts | 303° |
| 2026-05-04 18:13 | 47.31036 | 19.94397 | 19166 ft | 354 kts | 302° |
| 2026-05-04 18:13 | 47.33657 | 19.88196 | 17927 ft | 359 kts | 302° |
| 2026-05-04 18:14 | 47.34978 | 19.85069 | 17269 ft | 360 kts | 302° |
| 2026-05-04 18:14 | 47.36296 | 19.81946 | 16635 ft | 361 kts | 302° |
| 2026-05-04 18:14 | 47.37592 | 19.78867 | 16109 ft | 359 kts | 301° |
| 2026-05-04 18:15 | 47.40145 | 19.72786 | 15609 ft | 340 kts | 301° |
| 2026-05-04 18:15 | 47.42616 | 19.66901 | 15113 ft | 334 kts | 301° |
| 2026-05-04 18:15 | 47.43834 | 19.64002 | 14869 ft | 332 kts | 301° |
| 2026-05-04 18:16 | 47.45003 | 19.61213 | 14557 ft | 328 kts | 301° |
| 2026-05-04 18:16 | 47.46230 | 19.58275 | 14124 ft | 327 kts | 301° |
| 2026-05-04 18:16 | 47.47422 | 19.55417 | 13539 ft | 326 kts | 301° |
| 2026-05-04 18:17 | 47.49779 | 19.49748 | 12000 ft | 321 kts | 300° |
| 2026-05-04 18:17 | 47.50946 | 19.46938 | 11281 ft | 318 kts | 300° |
| 2026-05-04 18:17 | 47.53243 | 19.41411 | 9878 ft | 313 kts | 300° |
| 2026-05-04 18:18 | 47.54380 | 19.38674 | 9125 ft | 311 kts | 300° |
| 2026-05-04 18:18 | 47.55504 | 19.35962 | 8385 ft | 308 kts | 300° |
| 2026-05-04 18:18 | 47.56612 | 19.33282 | 8107 ft | 300 kts | 300° |
| 2026-05-04 18:18 | 47.57683 | 19.30694 | 7993 ft | 290 kts | 300° |
| 2026-05-04 18:19 | 47.59751 | 19.25690 | 7742 ft | 283 kts | 300° |
| 2026-05-04 18:19 | 47.60772 | 19.23213 | 7617 ft | 282 kts | 300° |
| 2026-05-04 18:19 | 47.61794 | 19.20733 | 7498 ft | 282 kts | 300° |
| 2026-05-04 18:20 | 47.62810 | 19.18263 | 7359 ft | 281 kts | 299° |
| 2026-05-04 18:20 | 47.63826 | 19.15792 | 7084 ft | 278 kts | 299° |
| 2026-05-04 18:20 | 47.64787 | 19.13455 | 6960 ft | 276 kts | 299° |
| 2026-05-04 18:20 | 47.65792 | 19.10969 | 6841 ft | 266 kts | 295° |
| 2026-05-04 18:21 | 47.66314 | 19.08409 | 6608 ft | 258 kts | 272° |
| 2026-05-04 18:21 | 47.66111 | 19.05814 | 6354 ft | 252 kts | 250° |
| 2026-05-04 18:21 | 47.65264 | 19.03526 | 5792 ft | 257 kts | 227° |
| 2026-05-04 18:21 | 47.63968 | 19.01710 | 5190 ft | 255 kts | 221° |
| 2026-05-04 18:22 | 47.62682 | 18.99994 | 5018 ft | 243 kts | 220° |
| 2026-05-04 18:22 | 47.61291 | 18.98742 | 4938 ft | 231 kts | 196° |
| 2026-05-04 18:22 | 47.59707 | 18.98749 | 4585 ft | 229 kts | 163° |
| 2026-05-04 18:22 | 47.58792 | 18.99488 | 4417 ft | 226 kts | 142° |
| 2026-05-04 18:23 | 47.57385 | 19.01696 | 4044 ft | 215 kts | 135° |
| 2026-05-04 18:23 | 47.56721 | 19.02799 | 3861 ft | 209 kts | 136° |
| 2026-05-04 18:23 | 47.55765 | 19.04370 | 3611 ft | 202 kts | 136° |
| 2026-05-04 18:23 | 47.54849 | 19.05864 | 3355 ft | 194 kts | 136° |
| 2026-05-04 18:24 | 47.53966 | 19.07303 | 3097 ft | 185 kts | 136° |
| 2026-05-04 18:24 | 47.53139 | 19.08653 | 2851 ft | 165 kts | 137° |
| 2026-05-04 18:24 | 47.52421 | 19.09824 | 2659 ft | 145 kts | 137° |
| 2026-05-04 18:24 | 47.51760 | 19.10897 | 2470 ft | 138 kts | 138° |
| 2026-05-04 18:25 | 47.51122 | 19.11931 | 2279 ft | 135 kts | 138° |
| 2026-05-04 18:25 | 47.50483 | 19.12967 | 2099 ft | 137 kts | 137° |
| 2026-05-04 18:25 | 47.49839 | 19.14012 | 1922 ft | 138 kts | 138° |
| 2026-05-04 18:25 | 47.49195 | 19.15057 | 1738 ft | 137 kts | 138° |
| 2026-05-04 18:26 | 47.48553 | 19.16100 | 1562 ft | 137 kts | 136° |
| 2026-05-04 18:26 | 47.47911 | 19.17141 | 1374 ft | 138 kts | 135° |
| 2026-05-04 18:26 | 47.47261 | 19.18196 | 1190 ft | 139 kts | 135° |
| 2026-05-04 18:26 | 47.46614 | 19.19246 | 999 ft | 139 kts | 133° |
| 2026-05-04 18:27 | 47.45957 | 19.20308 | 824 ft | 141 kts | 133° |
| 2026-05-04 18:27 | 47.45309 | 19.21374 | 637 ft | 139 kts | 133° |
| 2026-05-04 18:27 | 47.44654 | 19.22418 | 473 ft | 139 kts | 134° |
| 2026-05-04 18:27 | 47.44057 | 19.23389 | 455 ft | 107 kts | 131° |
| 2026-05-04 18:28 | 47.43677 | 19.24004 | 452 ft | 58 kts | 131° |
| 2026-05-04 18:28 | 47.43521 | 19.24257 | 451 ft | 9 kts | 132° |
| 2026-05-04 18:28 | 47.43501 | 19.24290 | 451 ft | 9 kts | 132° |
| 2026-05-04 18:28 | 47.43444 | 19.24383 | 452 ft | 16 kts | 132° |
| 2026-05-04 18:29 | 47.43350 | 19.24537 | 452 ft | 21 kts | 132° |
| 2026-05-04 18:29 | 47.43251 | 19.24697 | 455 ft | 22 kts | 133° |
| 2026-05-04 18:29 | 47.43148 | 19.24861 | 457 ft | 21 kts | 133° |
| 2026-05-04 18:29 | 47.43100 | 19.25016 | 457 ft | 17 kts | 84° |
| 2026-05-04 18:30 | 47.43136 | 19.25109 | 457 ft | 0 kts | 46° |
| 2026-05-04 18:31 | 47.43139 | 19.25114 | 457 ft | 3 kts | 43° |
| 2026-05-04 18:31 | 47.43166 | 19.25150 | 457 ft | 8 kts | 43° |
| 2026-05-04 18:31 | 47.43213 | 19.25212 | 457 ft | 10 kts | 42° |
| 2026-05-04 18:32 | 47.43272 | 19.25291 | 457 ft | 13 kts | 42° |
| 2026-05-04 18:32 | 47.43344 | 19.25387 | 457 ft | 15 kts | 43° |
| 2026-05-04 18:32 | 47.43424 | 19.25496 | 457 ft | 16 kts | 42° |
| 2026-05-04 18:32 | 47.43515 | 19.25616 | 457 ft | 19 kts | 41° |
| 2026-05-04 18:33 | 47.43597 | 19.25725 | 457 ft | 17 kts | 42° |
| 2026-05-04 18:33 | 47.43686 | 19.25846 | 457 ft | 19 kts | 43° |
| 2026-05-04 18:33 | 47.43720 | 19.25994 | 458 ft | 13 kts | 123° |
| 2026-05-04 18:33 | 47.43674 | 19.26117 | 456 ft | 15 kts | 94° |
| 2026-05-04 18:34 | 47.43678 | 19.26274 | 457 ft | 16 kts | 90° |
| 2026-05-04 18:34 | 47.43644 | 19.26384 | 458 ft | 8 kts | 133° |
| 2026-05-04 18:34 | 47.43636 | 19.26393 | 456 ft | 5 kts | 140° |
| 2026-05-04 18:34 | 47.43612 | 19.26377 | 457 ft | 5 kts | 216° |
| 2026-05-04 18:35 | 47.43596 | 19.26356 | 456 ft | 1 kts | 224° |
| 2026-05-04 18:35 | 47.43590 | 19.26348 | 457 ft | 2 kts | 223° |
| 2026-05-04 18:35 | 47.43588 | 19.26345 | 457 ft | 0 kts | 223° |